createdAt,value
2023-03-13T00:01:23.680Z,52.48
2023-03-13T00:03:55.361Z,52.28
2023-03-13T00:06:24.154Z,52.34
2023-03-13T00:08:52.562Z,52.34
2023-03-13T00:11:21.001Z,52.39
2023-03-13T00:13:49.473Z,52.46
2023-03-13T00:16:18.179Z,52.52
2023-03-13T00:18:47.827Z,52.53
2023-03-13T00:21:19.350Z,52.56
2023-03-13T00:23:48.325Z,52.46
2023-03-13T00:26:18.594Z,52.40
2023-03-13T00:28:47.380Z,52.37
2023-03-13T00:31:18.112Z,52.33
2023-03-13T00:33:48.701Z,52.41
2023-03-13T00:36:21.077Z,52.33
2023-03-13T00:38:50.902Z,52.32
2023-03-13T00:41:21.667Z,52.38
2023-03-13T00:43:50.895Z,52.37
2023-03-13T00:46:21.965Z,52.29
2023-03-13T00:48:50.750Z,52.49
2023-03-13T00:51:23.689Z,52.52
2023-03-13T00:53:52.631Z,52.39
2023-03-13T00:56:22.072Z,52.44
2023-03-13T00:58:51.616Z,52.40
2023-03-13T01:01:22.427Z,52.53
2023-03-13T01:03:52.606Z,52.45
2023-03-13T01:06:24.491Z,52.46
2023-03-13T01:08:53.802Z,52.38
2023-03-13T01:11:24.310Z,52.44
2023-03-13T01:13:55.774Z,52.48
2023-03-13T01:16:25.851Z,52.28
2023-03-13T01:18:56.306Z,52.29
2023-03-13T01:21:26.676Z,52.25
2023-03-13T01:23:55.588Z,52.35
2023-03-13T01:26:24.931Z,53.06
2023-03-13T01:28:53.435Z,53.10
2023-03-13T01:31:24.057Z,53.01
2023-03-13T01:33:55.373Z,52.93
2023-03-13T01:36:24.482Z,52.98
2023-03-13T01:38:56.126Z,52.91
2023-03-13T01:41:26.710Z,52.95
2023-03-13T01:43:56.185Z,52.68
2023-03-13T01:46:27.732Z,52.76
2023-03-13T01:49:08.768Z,52.70
2023-03-13T01:52:02.424Z,52.70
2023-03-13T01:54:38.451Z,52.89
2023-03-13T01:57:11.053Z,52.60
2023-03-13T01:59:43.314Z,52.74
2023-03-13T02:02:12.730Z,52.62
2023-03-13T02:04:46.430Z,52.68
2023-03-13T02:07:18.186Z,52.54
2023-03-13T02:09:51.371Z,52.64
2023-03-13T02:12:25.284Z,52.64
2023-03-13T02:14:53.932Z,52.72
2023-03-13T02:17:22.507Z,52.50
2023-03-13T02:19:53.112Z,52.56
2023-03-13T02:22:29.477Z,52.52
2023-03-13T02:25:08.056Z,52.63
2023-03-13T02:27:38.128Z,52.71
2023-03-13T02:30:11.093Z,52.57
2023-03-13T02:32:40.375Z,52.71
2023-03-13T02:35:11.747Z,52.50
2023-03-13T02:37:42.880Z,52.61
2023-03-13T02:40:22.427Z,52.46
2023-03-13T02:42:54.441Z,52.60
2023-03-13T02:45:23.340Z,52.65
2023-03-13T02:47:51.824Z,52.60
2023-03-13T02:50:21.755Z,52.52
2023-03-13T02:52:56.390Z,52.59
2023-03-13T02:55:29.359Z,52.60
2023-03-13T02:57:59.307Z,52.41
2023-03-13T03:00:30.446Z,52.42
2023-03-13T03:02:58.899Z,52.48
2023-03-13T03:05:27.424Z,52.36
2023-03-13T03:07:55.854Z,52.43
2023-03-13T03:10:25.268Z,52.61
2023-03-13T03:12:54.052Z,52.47
2023-03-13T03:15:23.868Z,52.51
2023-03-13T03:17:53.830Z,52.40
2023-03-13T03:20:22.226Z,52.34
2023-03-13T03:22:50.625Z,52.40
2023-03-13T03:25:19.124Z,52.52
2023-03-13T03:27:49.785Z,52.52
2023-03-13T03:30:20.125Z,52.43
2023-03-13T03:32:50.235Z,52.47
2023-03-13T03:35:18.675Z,52.53
2023-03-13T03:37:47.107Z,52.48
2023-03-13T03:40:16.129Z,52.50
2023-03-13T03:42:45.171Z,52.33
2023-03-13T03:45:13.616Z,52.36
2023-03-13T03:47:42.137Z,52.38
2023-03-13T03:50:12.633Z,52.30
2023-03-13T03:52:51.385Z,52.46
2023-03-13T03:55:20.551Z,52.40
2023-03-13T03:57:49.061Z,52.35
2023-03-13T04:00:27.709Z,52.30
2023-03-13T04:02:56.962Z,52.44
2023-03-13T04:05:26.738Z,52.44
2023-03-13T04:07:55.945Z,52.41
2023-03-13T04:10:24.436Z,52.21
2023-03-13T04:12:52.812Z,52.35
2023-03-13T04:15:21.175Z,52.42
2023-03-13T04:17:49.724Z,52.51
2023-03-13T04:20:20.519Z,52.44
2023-03-13T04:22:50.301Z,52.40
2023-03-13T04:25:19.511Z,52.54
2023-03-13T04:27:49.602Z,52.46
2023-03-13T04:30:18.940Z,52.47
2023-03-13T04:33:13.338Z,52.32
2023-03-13T04:35:52.513Z,52.30
2023-03-13T04:38:34.465Z,52.47
2023-03-13T04:41:31.897Z,52.36
2023-03-13T04:44:26.682Z,52.34
2023-03-13T04:47:17.504Z,52.28
2023-03-13T04:49:52.528Z,52.37
2023-03-13T04:52:50.298Z,52.39
2023-03-13T04:55:49.730Z,52.28
2023-03-13T04:58:46.850Z,52.45
2023-03-13T05:01:35.715Z,52.33
2023-03-13T05:04:18.670Z,52.33
2023-03-13T05:07:05.822Z,52.47
2023-03-13T05:09:52.912Z,52.39
2023-03-13T05:12:41.234Z,52.42
2023-03-13T05:15:23.644Z,52.54
2023-03-13T05:18:04.421Z,52.35
2023-03-13T05:21:03.163Z,52.57
2023-03-13T05:23:53.703Z,52.46
2023-03-13T05:26:35.421Z,52.43
2023-03-13T05:29:07.781Z,52.46
2023-03-13T05:31:57.964Z,52.47
2023-03-13T05:34:46.793Z,52.60
2023-03-13T05:37:50.505Z,52.56
2023-03-13T05:40:42.175Z,52.51
2023-03-13T05:43:36.814Z,52.49
2023-03-13T05:46:32.461Z,52.56
2023-03-13T05:49:23.848Z,52.63
2023-03-13T05:52:15.413Z,52.36
2023-03-13T05:55:02.397Z,52.55
2023-03-13T05:58:02.166Z,52.55
2023-03-13T06:00:50.850Z,52.54
2023-03-13T06:03:47.474Z,52.58
2023-03-13T06:06:17.290Z,52.46
2023-03-13T06:08:49.346Z,52.49
2023-03-13T06:11:17.859Z,52.46
2023-03-13T06:13:46.427Z,52.59
2023-03-13T06:16:24.862Z,52.44
2023-03-13T06:18:57.447Z,52.44
2023-03-13T06:21:25.841Z,52.51
2023-03-13T06:23:55.687Z,52.51
2023-03-13T06:26:24.772Z,52.48
2023-03-13T06:28:53.608Z,52.45
2023-03-13T06:31:22.654Z,52.61
2023-03-13T06:33:54.307Z,52.54
2023-03-13T06:36:24.584Z,52.51
2023-03-13T06:38:53.132Z,52.38
2023-03-13T06:41:21.587Z,52.33
2023-03-13T06:43:49.971Z,52.47
2023-03-13T06:46:19.760Z,52.36
2023-03-13T06:48:48.164Z,52.55
2023-03-13T06:51:18.822Z,52.56
2023-03-13T06:53:49.401Z,52.41
2023-03-13T06:56:17.791Z,52.43
2023-03-13T06:58:48.967Z,52.42
2023-03-13T07:01:18.569Z,52.35
2023-03-13T07:03:48.762Z,52.17
2023-03-13T07:06:18.374Z,52.17
2023-03-13T07:08:48.554Z,51.96
2023-03-13T07:11:17.910Z,51.82
2023-03-13T07:13:46.273Z,51.60
2023-03-13T07:16:15.051Z,51.27
2023-03-13T07:18:44.716Z,51.36
2023-03-13T07:21:14.322Z,51.11
2023-03-13T07:23:42.728Z,50.90
2023-03-13T07:26:15.120Z,51.01
2023-03-13T07:28:44.235Z,50.58
2023-03-13T07:31:14.634Z,50.58
2023-03-13T07:33:44.741Z,50.76
2023-03-13T07:36:14.700Z,50.17
2023-03-13T07:38:44.038Z,50.34
2023-03-13T07:41:14.298Z,50.58
2023-03-13T07:43:42.947Z,50.63
2023-03-13T07:46:14.152Z,50.88
2023-03-13T07:48:44.185Z,50.86
2023-03-13T07:51:15.223Z,50.96
2023-03-13T07:53:43.777Z,51.05
2023-03-13T07:56:15.909Z,51.13
2023-03-13T07:58:45.558Z,51.13
2023-03-13T08:01:16.938Z,51.25
2023-03-13T08:03:46.376Z,51.29
2023-03-13T08:06:16.900Z,51.33
2023-03-13T08:08:45.715Z,51.42
2023-03-13T08:11:17.256Z,51.37
2023-03-13T08:13:46.050Z,51.55
2023-03-13T08:16:16.714Z,51.40
2023-03-13T08:18:47.258Z,51.60
2023-03-13T08:21:17.182Z,51.52
2023-03-13T08:23:45.723Z,51.59
2023-03-13T08:26:17.426Z,51.57
2023-03-13T08:28:47.611Z,51.63
2023-03-13T08:31:18.211Z,51.62
2023-03-13T08:33:48.114Z,51.59
2023-03-13T08:36:18.804Z,51.73
2023-03-13T08:38:48.229Z,51.71
2023-03-13T08:41:20.279Z,51.80
2023-03-13T08:43:49.120Z,51.66
2023-03-13T08:46:19.730Z,51.66
2023-03-13T08:48:51.255Z,51.67
2023-03-13T08:51:21.130Z,51.77
2023-03-13T08:53:50.416Z,51.67
2023-03-13T08:56:22.239Z,51.73
2023-03-13T08:58:51.536Z,51.77
2023-03-13T09:01:21.547Z,51.90
2023-03-13T09:03:50.489Z,51.80
2023-03-13T09:06:19.147Z,51.71
2023-03-13T09:08:47.844Z,51.79
2023-03-13T09:11:18.995Z,51.80
2023-03-13T09:13:50.878Z,51.95
2023-03-13T09:16:20.786Z,51.76
2023-03-13T09:18:50.474Z,51.89
2023-03-13T09:21:20.536Z,51.94
2023-03-13T09:23:49.377Z,52.16
2023-03-13T09:26:19.606Z,52.64
2023-03-13T09:28:51.230Z,53.61
2023-03-13T09:31:22.208Z,54.28
2023-03-13T09:33:51.812Z,54.02
2023-03-13T09:36:22.637Z,54.48
2023-03-13T09:38:52.194Z,54.04
2023-03-13T09:41:28.092Z,54.18
2023-03-13T09:44:02.908Z,53.83
2023-03-13T09:46:38.410Z,53.92
2023-03-13T09:49:17.315Z,53.48
2023-03-13T09:51:51.833Z,53.29
2023-03-13T09:54:32.477Z,53.66
2023-03-13T09:57:08.198Z,53.76
2023-03-13T09:59:46.870Z,54.10
2023-03-13T10:02:26.362Z,53.83
2023-03-13T10:05:00.741Z,53.69
2023-03-13T10:07:29.187Z,53.59
2023-03-13T10:09:57.620Z,53.77
2023-03-13T10:12:30.049Z,53.62
2023-03-13T10:15:18.152Z,53.51
2023-03-13T10:17:46.841Z,53.77
2023-03-13T10:20:24.187Z,53.53
2023-03-13T10:22:58.563Z,53.40
2023-03-13T10:25:31.399Z,53.43
2023-03-13T10:28:00.165Z,53.59
2023-03-13T10:30:31.976Z,53.46
2023-03-13T10:33:02.573Z,53.85
2023-03-13T10:35:36.240Z,53.55
2023-03-13T10:38:07.615Z,53.50
2023-03-13T10:40:36.766Z,53.46
2023-03-13T10:43:07.624Z,53.55
2023-03-13T10:45:38.766Z,53.50
2023-03-13T10:48:13.468Z,53.49
2023-03-13T10:50:45.173Z,53.43
2023-03-13T10:53:26.612Z,53.38
2023-03-13T10:55:56.687Z,53.50
2023-03-13T10:58:31.276Z,53.43
2023-03-13T11:01:18.198Z,53.49
2023-03-13T11:03:48.584Z,53.31
2023-03-13T11:06:26.446Z,53.44
2023-03-13T11:09:12.916Z,52.92
2023-03-13T11:11:46.126Z,52.34
2023-03-13T11:14:17.191Z,51.96
2023-03-13T11:16:50.796Z,51.68
2023-03-13T11:19:34.580Z,51.70
2023-03-13T11:22:16.174Z,51.39
2023-03-13T11:24:50.692Z,51.33
2023-03-13T11:27:27.125Z,50.85
2023-03-13T11:30:06.918Z,50.68
2023-03-13T11:32:42.512Z,50.90
2023-03-13T11:35:21.595Z,50.39
2023-03-13T11:37:56.713Z,50.71
2023-03-13T11:40:32.876Z,50.62
2023-03-13T11:43:24.972Z,50.80
2023-03-13T11:46:24.378Z,50.73
2023-03-13T11:49:18.433Z,50.58
2023-03-13T11:51:59.623Z,50.84
2023-03-13T11:55:04.303Z,50.56
2023-03-13T11:57:39.150Z,50.77
2023-03-13T12:00:25.972Z,50.59
2023-03-13T12:03:04.749Z,50.34
2023-03-13T12:05:42.508Z,50.34
2023-03-13T12:08:17.069Z,50.28
2023-03-13T12:10:48.729Z,50.94
2023-03-13T12:13:21.217Z,49.79
2023-03-13T12:15:53.021Z,50.71
2023-03-13T12:18:26.084Z,51.36
2023-03-13T12:21:02.807Z,51.62
2023-03-13T12:23:41.859Z,51.74
2023-03-13T12:26:15.859Z,52.02
2023-03-13T12:28:46.657Z,51.76
2023-03-13T12:31:21.490Z,52.00
2023-03-13T12:33:58.357Z,52.08
2023-03-13T12:36:35.250Z,52.01
2023-03-13T12:39:19.115Z,52.04
2023-03-13T12:41:55.765Z,51.86
2023-03-13T12:44:25.069Z,51.92
2023-03-13T12:47:03.865Z,52.16
2023-03-13T12:49:59.053Z,52.18
2023-03-13T12:52:49.244Z,52.29
2023-03-13T12:55:51.084Z,52.25
2023-03-13T12:58:46.247Z,52.23
2023-03-13T13:01:20.639Z,52.47
2023-03-13T13:03:56.303Z,52.37
2023-03-13T13:06:25.461Z,52.30
2023-03-13T13:09:09.934Z,52.27
2023-03-13T13:11:57.311Z,52.29
2023-03-13T13:15:01.777Z,52.45
2023-03-13T13:17:48.166Z,52.44
2023-03-13T13:20:46.073Z,52.21
2023-03-13T13:23:33.988Z,52.39
2023-03-13T13:26:42.009Z,52.64
2023-03-13T13:29:55.978Z,52.54
2023-03-13T13:32:41.866Z,52.89
2023-03-13T13:35:32.397Z,52.75
2023-03-13T13:38:30.116Z,52.75
2023-03-13T13:41:03.620Z,52.73
2023-03-13T13:43:34.983Z,52.93
2023-03-13T13:46:09.048Z,52.66
2023-03-13T13:48:39.924Z,52.91
2023-03-13T13:51:28.540Z,52.76
2023-03-13T13:53:59.837Z,53.01
2023-03-13T13:56:42.136Z,52.98
2023-03-13T13:59:40.892Z,52.93
2023-03-13T14:02:22.558Z,52.83
2023-03-13T14:04:57.080Z,52.93
2023-03-13T14:07:34.610Z,53.13
2023-03-13T14:10:10.923Z,53.06
2023-03-13T14:12:40.574Z,53.23
2023-03-13T14:15:21.452Z,53.28
2023-03-13T14:17:52.344Z,53.28
2023-03-13T14:20:31.946Z,53.10
2023-03-13T14:23:02.956Z,53.16
2023-03-13T14:25:43.929Z,53.14
2023-03-13T14:28:21.669Z,53.24
2023-03-13T14:30:52.451Z,53.36
2023-03-13T14:33:21.202Z,53.24
2023-03-13T14:35:51.101Z,53.67
2023-03-13T14:38:21.571Z,53.94
2023-03-13T14:40:51.567Z,53.89
2023-03-13T14:43:24.436Z,54.21
2023-03-13T14:45:53.136Z,53.50
2023-03-13T14:48:24.541Z,53.49
2023-03-13T14:51:14.171Z,53.35
2023-03-13T14:53:56.503Z,52.77
2023-03-13T14:56:33.834Z,52.40
2023-03-13T14:59:10.182Z,51.80
2023-03-13T15:01:38.517Z,52.07
2023-03-13T15:04:06.919Z,52.43
2023-03-13T15:06:36.850Z,51.66
2023-03-13T15:09:20.756Z,51.87
2023-03-13T15:11:59.990Z,52.08
2023-03-13T15:14:40.298Z,52.38
2023-03-13T15:17:15.254Z,52.61
2023-03-13T15:19:44.775Z,52.84
2023-03-13T15:22:17.196Z,53.05
2023-03-13T15:24:59.719Z,53.00
2023-03-13T15:27:33.303Z,53.24
2023-03-13T15:30:01.779Z,53.07
2023-03-13T15:32:32.104Z,53.10
2023-03-13T15:35:01.843Z,53.22
2023-03-13T15:37:32.558Z,53.30
2023-03-13T15:40:00.948Z,53.38
2023-03-13T15:42:29.348Z,53.34
2023-03-13T15:44:57.848Z,53.29
2023-03-13T15:47:27.449Z,53.40
2023-03-13T15:49:55.882Z,53.32
2023-03-13T15:52:24.433Z,53.43
2023-03-13T15:54:54.189Z,53.28
2023-03-13T15:57:26.413Z,53.45
2023-03-13T15:59:55.352Z,53.39
2023-03-13T16:02:25.288Z,53.50
2023-03-13T16:04:55.528Z,53.45
2023-03-13T16:07:24.317Z,53.96
2023-03-13T16:09:54.252Z,54.50
2023-03-13T16:12:22.661Z,54.38
2023-03-13T16:14:51.062Z,54.56
2023-03-13T16:17:23.042Z,54.58
2023-03-13T16:19:51.655Z,54.42
2023-03-13T16:22:20.232Z,54.80
2023-03-13T16:24:48.630Z,54.94
2023-03-13T16:27:21.004Z,55.04
2023-03-13T16:29:49.741Z,54.94
2023-03-13T16:32:24.284Z,54.91
2023-03-13T16:34:52.912Z,54.92
2023-03-13T16:37:22.496Z,54.98
2023-03-13T16:39:51.526Z,54.88
2023-03-13T16:42:21.281Z,54.31
2023-03-13T16:44:49.669Z,53.87
2023-03-13T16:47:22.945Z,53.90
2023-03-13T16:49:51.547Z,54.21
2023-03-13T16:52:20.026Z,54.23
2023-03-13T16:54:48.522Z,54.29
2023-03-13T16:57:19.085Z,54.35
2023-03-13T16:59:49.111Z,54.17
2023-03-13T17:02:19.743Z,54.32
2023-03-13T17:04:49.039Z,54.33
2023-03-13T17:07:20.197Z,54.04
2023-03-13T17:09:48.610Z,54.26
2023-03-13T17:12:17.520Z,54.39
2023-03-13T17:14:46.397Z,53.85
2023-03-13T17:17:18.706Z,54.20
2023-03-13T17:19:47.651Z,54.14
2023-03-13T17:22:17.922Z,53.99
2023-03-13T17:24:48.442Z,54.13
2023-03-13T17:27:18.774Z,54.06
2023-03-13T17:29:47.238Z,54.10
2023-03-13T17:32:16.966Z,54.00
2023-03-13T17:34:45.433Z,53.88
2023-03-13T17:37:18.862Z,54.08
2023-03-13T17:39:48.695Z,54.23
2023-03-13T17:42:17.172Z,54.04
2023-03-13T17:44:45.772Z,54.08
2023-03-13T17:47:18.392Z,54.10
2023-03-13T17:49:48.023Z,54.11
2023-03-13T17:52:18.013Z,54.01
2023-03-13T17:54:46.731Z,53.92
2023-03-13T17:57:17.749Z,53.94
2023-03-13T17:59:47.153Z,54.03
2023-03-13T18:02:19.215Z,53.94
2023-03-13T18:04:48.945Z,54.58
2023-03-13T18:07:27.065Z,54.92
2023-03-13T18:09:55.780Z,54.92
2023-03-13T18:12:24.222Z,54.90
2023-03-13T18:14:52.663Z,54.89
2023-03-13T18:17:24.362Z,55.22
2023-03-13T18:19:52.802Z,54.98
2023-03-13T18:22:22.453Z,54.97
2023-03-13T18:24:50.833Z,55.07
2023-03-13T18:27:22.276Z,55.17
2023-03-13T18:29:50.806Z,54.98
2023-03-13T18:32:19.756Z,55.11
2023-03-13T18:34:49.517Z,54.53
2023-03-13T18:37:28.256Z,54.40
2023-03-13T18:39:56.750Z,54.01
2023-03-13T18:42:26.069Z,54.19
2023-03-13T18:44:56.110Z,54.00
2023-03-13T18:47:27.228Z,54.20
2023-03-13T18:49:57.076Z,54.24
2023-03-13T18:52:25.598Z,54.60
2023-03-13T18:54:54.009Z,54.91
2023-03-13T18:57:22.388Z,55.11
2023-03-13T18:59:50.796Z,55.12
2023-03-13T19:02:20.184Z,55.19
2023-03-13T19:04:48.588Z,55.11
2023-03-13T19:07:25.659Z,55.15
2023-03-13T19:09:54.584Z,55.36
2023-03-13T19:12:22.998Z,55.37
2023-03-13T19:14:51.400Z,55.42
2023-03-13T19:17:26.830Z,55.62
2023-03-13T19:19:57.358Z,55.44
2023-03-13T19:22:27.637Z,55.63
2023-03-13T19:24:56.242Z,55.67
2023-03-13T19:27:24.947Z,55.50
2023-03-13T19:29:53.392Z,55.59
2023-03-13T19:32:21.953Z,55.46
2023-03-13T19:34:50.385Z,55.67
2023-03-13T19:37:19.497Z,55.54
2023-03-13T19:39:49.363Z,55.76
2023-03-13T19:42:17.775Z,55.73
2023-03-13T19:44:46.131Z,55.82
2023-03-13T19:47:15.669Z,55.47
2023-03-13T19:49:45.321Z,55.77
2023-03-13T19:52:13.766Z,55.46
2023-03-13T19:54:42.222Z,55.50
2023-03-13T19:57:12.314Z,55.58
2023-03-13T19:59:40.727Z,55.71
2023-03-13T20:02:10.780Z,55.65
2023-03-13T20:04:39.495Z,55.57
2023-03-13T20:07:08.319Z,55.50
2023-03-13T20:09:36.971Z,55.66
2023-03-13T20:12:06.176Z,55.70
2023-03-13T20:14:36.057Z,55.74
2023-03-13T20:17:04.564Z,55.83
2023-03-13T20:19:33.341Z,55.95
2023-03-13T20:22:05.035Z,55.81
2023-03-13T20:24:48.750Z,56.12
2023-03-13T20:27:17.198Z,56.06
2023-03-13T20:29:46.997Z,56.16
2023-03-13T20:32:15.501Z,55.90
2023-03-13T20:34:44.049Z,55.77
2023-03-13T20:37:12.552Z,55.85
2023-03-13T20:39:41.856Z,55.75
2023-03-13T20:42:10.257Z,55.75
2023-03-13T20:44:38.688Z,55.88
2023-03-13T20:47:09.604Z,56.01
2023-03-13T20:49:41.035Z,55.92
2023-03-13T20:52:09.543Z,55.13
2023-03-13T20:54:38.691Z,54.80
2023-03-13T20:57:08.488Z,54.74
2023-03-13T20:59:37.018Z,54.57
2023-03-13T21:02:06.496Z,54.71
2023-03-13T21:04:36.431Z,54.51
2023-03-13T21:07:05.349Z,54.60
2023-03-13T21:09:34.929Z,54.61
2023-03-13T21:12:03.623Z,54.64
2023-03-13T21:14:33.328Z,54.67
2023-03-13T21:17:02.539Z,54.82
2023-03-13T21:19:31.405Z,54.82
2023-03-13T21:22:01.182Z,54.77
2023-03-13T21:24:29.636Z,54.87
2023-03-13T21:26:59.554Z,54.82
2023-03-13T21:29:28.347Z,54.85
2023-03-13T21:31:56.757Z,54.84
2023-03-13T21:34:25.197Z,54.91
2023-03-13T21:36:53.659Z,54.78
2023-03-13T21:39:23.745Z,54.84
2023-03-13T21:41:52.272Z,54.95
2023-03-13T21:44:20.826Z,54.91
2023-03-13T21:46:49.383Z,54.81
2023-03-13T21:49:18.047Z,54.95
2023-03-13T21:51:46.445Z,54.82
2023-03-13T21:54:14.904Z,54.85
2023-03-13T21:56:44.730Z,54.84
2023-03-13T21:59:13.137Z,54.78
2023-03-13T22:01:42.267Z,54.78
2023-03-13T22:04:10.746Z,54.71
2023-03-13T22:06:39.165Z,54.83
2023-03-13T22:09:08.651Z,54.76
2023-03-13T22:11:37.150Z,54.87
2023-03-13T22:14:06.927Z,54.73
2023-03-13T22:16:35.361Z,54.80
2023-03-13T22:19:03.951Z,54.77
2023-03-13T22:21:32.519Z,54.75
2023-03-13T22:24:00.979Z,54.72
2023-03-13T22:26:29.403Z,54.72
2023-03-13T22:28:57.789Z,54.62
2023-03-13T22:31:27.674Z,54.59
2023-03-13T22:33:56.271Z,54.73
2023-03-13T22:36:25.090Z,54.60
2023-03-13T22:38:53.510Z,54.58
2023-03-13T22:41:21.932Z,54.73
2023-03-13T22:43:50.333Z,54.59
2023-03-13T22:46:18.765Z,54.57
2023-03-13T22:48:48.551Z,54.61
2023-03-13T22:51:17.121Z,54.73
2023-03-13T22:53:45.613Z,54.60
2023-03-13T22:56:14.016Z,54.60
2023-03-13T22:58:43.097Z,54.58
2023-03-13T23:01:14.171Z,54.82
2023-03-13T23:03:43.132Z,54.69
2023-03-13T23:06:17.390Z,54.71
2023-03-13T23:08:45.875Z,54.69
2023-03-13T23:11:14.838Z,54.64
2023-03-13T23:13:43.355Z,54.51
2023-03-13T23:16:13.217Z,54.53
2023-03-13T23:18:42.413Z,54.55
2023-03-13T23:21:13.064Z,54.58
2023-03-13T23:23:43.204Z,54.60
2023-03-13T23:26:13.411Z,54.59
2023-03-13T23:28:41.941Z,54.60
2023-03-13T23:31:12.451Z,54.59
2023-03-13T23:33:40.987Z,54.68
2023-03-13T23:36:11.553Z,54.55
2023-03-13T23:38:40.067Z,54.40
2023-03-13T23:41:11.878Z,54.59
2023-03-13T23:43:40.977Z,54.64
2023-03-13T23:46:16.650Z,54.63
2023-03-13T23:48:45.178Z,54.55
2023-03-13T23:51:13.690Z,54.63
2023-03-13T23:53:43.964Z,54.65
2023-03-13T23:56:14.075Z,54.65
2023-03-13T23:58:42.857Z,54.58
